sensor_id;sensor_type;location;lat;lon;timestamp;P1;durP1;ratioP1;P2;durP2;ratioP2
37593;SDS011;23441;50.856;6.076;2024-01-30T00:02:28;11.35;;;7.38;;
37593;SDS011;23441;50.856;6.076;2024-01-30T00:05:14;11.80;;;7.22;;
37593;SDS011;23441;50.856;6.076;2024-01-30T00:08:00;11.18;;;7.05;;
37593;SDS011;23441;50.856;6.076;2024-01-30T00:10:46;12.30;;;7.05;;
37593;SDS011;23441;50.856;6.076;2024-01-30T00:13:32;12.82;;;7.50;;
37593;SDS011;23441;50.856;6.076;2024-01-30T00:16:21;12.43;;;6.88;;
37593;SDS011;23441;50.856;6.076;2024-01-30T00:19:07;12.60;;;6.47;;
37593;SDS011;23441;50.856;6.076;2024-01-30T00:21:53;8.88;;;6.60;;
37593;SDS011;23441;50.856;6.076;2024-01-30T00:24:39;10.27;;;6.07;;
37593;SDS011;23441;50.856;6.076;2024-01-30T00:27:25;9.18;;;6.18;;
37593;SDS011;23441;50.856;6.076;2024-01-30T00:30:12;11.18;;;6.30;;
37593;SDS011;23441;50.856;6.076;2024-01-30T00:33:02;11.95;;;6.00;;
37593;SDS011;23441;50.856;6.076;2024-01-30T00:35:50;14.55;;;6.22;;
37593;SDS011;23441;50.856;6.076;2024-01-30T00:38:38;11.77;;;6.15;;
37593;SDS011;23441;50.856;6.076;2024-01-30T00:41:26;9.38;;;5.90;;
37593;SDS011;23441;50.856;6.076;2024-01-30T00:44:12;11.70;;;6.35;;
37593;SDS011;23441;50.856;6.076;2024-01-30T00:46:58;8.88;;;6.15;;
37593;SDS011;23441;50.856;6.076;2024-01-30T00:49:44;7.80;;;5.75;;
37593;SDS011;23441;50.856;6.076;2024-01-30T00:52:30;9.25;;;6.03;;
37593;SDS011;23441;50.856;6.076;2024-01-30T00:55:16;10.50;;;6.90;;
37593;SDS011;23441;50.856;6.076;2024-01-30T00:58:02;9.10;;;5.75;;
37593;SDS011;23441;50.856;6.076;2024-01-30T01:00:48;7.70;;;5.95;;
37593;SDS011;23441;50.856;6.076;2024-01-30T01:03:34;10.82;;;6.13;;
37593;SDS011;23441;50.856;6.076;2024-01-30T01:06:20;8.25;;;6.57;;
37593;SDS011;23441;50.856;6.076;2024-01-30T01:09:06;11.20;;;6.30;;
37593;SDS011;23441;50.856;6.076;2024-01-30T01:11:52;9.93;;;6.35;;
37593;SDS011;23441;50.856;6.076;2024-01-30T01:14:38;10.52;;;6.38;;
37593;SDS011;23441;50.856;6.076;2024-01-30T01:17:24;10.30;;;6.45;;
37593;SDS011;23441;50.856;6.076;2024-01-30T01:20:10;10.63;;;5.70;;
37593;SDS011;23441;50.856;6.076;2024-01-30T01:22:56;13.63;;;7.70;;
37593;SDS011;23441;50.856;6.076;2024-01-30T01:25:42;9.43;;;6.32;;
37593;SDS011;23441;50.856;6.076;2024-01-30T01:28:28;7.65;;;6.50;;
37593;SDS011;23441;50.856;6.076;2024-01-30T01:31:14;12.50;;;6.03;;
37593;SDS011;23441;50.856;6.076;2024-01-30T01:34:01;8.30;;;5.82;;
37593;SDS011;23441;50.856;6.076;2024-01-30T01:36:47;9.30;;;5.97;;
37593;SDS011;23441;50.856;6.076;2024-01-30T01:39:33;10.98;;;6.00;;
37593;SDS011;23441;50.856;6.076;2024-01-30T01:42:19;8.52;;;5.38;;
37593;SDS011;23441;50.856;6.076;2024-01-30T01:45:05;10.02;;;6.10;;
37593;SDS011;23441;50.856;6.076;2024-01-30T01:47:52;12.85;;;6.80;;
37593;SDS011;23441;50.856;6.076;2024-01-30T01:50:38;10.23;;;6.45;;
37593;SDS011;23441;50.856;6.076;2024-01-30T01:53:24;8.23;;;6.20;;
37593;SDS011;23441;50.856;6.076;2024-01-30T01:56:11;8.10;;;5.68;;
37593;SDS011;23441;50.856;6.076;2024-01-30T01:58:59;11.48;;;6.07;;
37593;SDS011;23441;50.856;6.076;2024-01-30T02:01:49;13.85;;;6.00;;
37593;SDS011;23441;50.856;6.076;2024-01-30T02:04:37;13.02;;;5.40;;
37593;SDS011;23441;50.856;6.076;2024-01-30T02:07:24;10.05;;;5.85;;
37593;SDS011;23441;50.856;6.076;2024-01-30T02:10:10;10.15;;;5.20;;
37593;SDS011;23441;50.856;6.076;2024-01-30T02:12:56;8.35;;;5.28;;
37593;SDS011;23441;50.856;6.076;2024-01-30T02:15:42;9.93;;;5.22;;
37593;SDS011;23441;50.856;6.076;2024-01-30T02:18:28;11.02;;;5.32;;
37593;SDS011;23441;50.856;6.076;2024-01-30T02:21:16;9.25;;;5.70;;
37593;SDS011;23441;50.856;6.076;2024-01-30T02:24:03;11.43;;;5.18;;
37593;SDS011;23441;50.856;6.076;2024-01-30T02:26:50;9.05;;;5.03;;
37593;SDS011;23441;50.856;6.076;2024-01-30T02:29:36;10.70;;;5.38;;
37593;SDS011;23441;50.856;6.076;2024-01-30T02:32:22;12.13;;;5.32;;
37593;SDS011;23441;50.856;6.076;2024-01-30T02:35:08;8.65;;;5.20;;
37593;SDS011;23441;50.856;6.076;2024-01-30T02:37:54;12.20;;;5.43;;
37593;SDS011;23441;50.856;6.076;2024-01-30T02:40:40;7.25;;;5.07;;
37593;SDS011;23441;50.856;6.076;2024-01-30T02:43:26;7.03;;;4.68;;
37593;SDS011;23441;50.856;6.076;2024-01-30T02:46:12;6.85;;;4.95;;
37593;SDS011;23441;50.856;6.076;2024-01-30T02:48:58;6.82;;;4.88;;
37593;SDS011;23441;50.856;6.076;2024-01-30T02:51:44;10.65;;;5.13;;
37593;SDS011;23441;50.856;6.076;2024-01-30T02:54:30;8.20;;;4.80;;
37593;SDS011;23441;50.856;6.076;2024-01-30T02:57:16;7.53;;;4.65;;
37593;SDS011;23441;50.856;6.076;2024-01-30T03:00:02;7.90;;;4.65;;
37593;SDS011;23441;50.856;6.076;2024-01-30T03:02:49;7.47;;;5.00;;
37593;SDS011;23441;50.856;6.076;2024-01-30T03:05:35;7.85;;;4.60;;
37593;SDS011;23441;50.856;6.076;2024-01-30T03:08:21;7.18;;;5.03;;
37593;SDS011;23441;50.856;6.076;2024-01-30T03:11:07;8.82;;;4.95;;
37593;SDS011;23441;50.856;6.076;2024-01-30T03:13:53;7.30;;;4.50;;
37593;SDS011;23441;50.856;6.076;2024-01-30T03:16:39;9.27;;;4.97;;
37593;SDS011;23441;50.856;6.076;2024-01-30T03:19:25;6.57;;;4.30;;
37593;SDS011;23441;50.856;6.076;2024-01-30T03:22:11;8.45;;;4.60;;
37593;SDS011;23441;50.856;6.076;2024-01-30T03:24:57;7.57;;;4.97;;
37593;SDS011;23441;50.856;6.076;2024-01-30T03:27:43;6.22;;;4.63;;
37593;SDS011;23441;50.856;6.076;2024-01-30T03:30:29;7.45;;;5.28;;
37593;SDS011;23441;50.856;6.076;2024-01-30T03:33:15;8.30;;;5.20;;
37593;SDS011;23441;50.856;6.076;2024-01-30T03:36:04;6.55;;;5.00;;
37593;SDS011;23441;50.856;6.076;2024-01-30T03:38:51;7.43;;;4.90;;
37593;SDS011;23441;50.856;6.076;2024-01-30T03:41:37;10.75;;;5.13;;
37593;SDS011;23441;50.856;6.076;2024-01-30T03:44:23;7.80;;;4.80;;
37593;SDS011;23441;50.856;6.076;2024-01-30T03:47:09;9.57;;;5.20;;
37593;SDS011;23441;50.856;6.076;2024-01-30T03:49:55;8.68;;;5.13;;
37593;SDS011;23441;50.856;6.076;2024-01-30T03:52:41;8.90;;;4.97;;
37593;SDS011;23441;50.856;6.076;2024-01-30T03:55:26;8.25;;;5.07;;
37593;SDS011;23441;50.856;6.076;2024-01-30T03:58:12;7.13;;;4.90;;
37593;SDS011;23441;50.856;6.076;2024-01-30T04:00:58;7.75;;;5.03;;
37593;SDS011;23441;50.856;6.076;2024-01-30T04:03:44;7.63;;;5.00;;
37593;SDS011;23441;50.856;6.076;2024-01-30T04:06:30;7.90;;;5.10;;
37593;SDS011;23441;50.856;6.076;2024-01-30T04:09:16;6.78;;;4.72;;
37593;SDS011;23441;50.856;6.076;2024-01-30T04:12:02;8.65;;;5.25;;
37593;SDS011;23441;50.856;6.076;2024-01-30T04:14:49;7.07;;;5.15;;
37593;SDS011;23441;50.856;6.076;2024-01-30T04:17:35;5.95;;;4.85;;
37593;SDS011;23441;50.856;6.076;2024-01-30T04:20:21;8.77;;;5.13;;
37593;SDS011;23441;50.856;6.076;2024-01-30T04:23:06;6.50;;;4.82;;
37593;SDS011;23441;50.856;6.076;2024-01-30T04:25:52;8.57;;;5.50;;
37593;SDS011;23441;50.856;6.076;2024-01-30T04:28:38;8.30;;;4.82;;
37593;SDS011;23441;50.856;6.076;2024-01-30T04:31:27;6.40;;;5.30;;
37593;SDS011;23441;50.856;6.076;2024-01-30T04:34:13;8.68;;;5.40;;
37593;SDS011;23441;50.856;6.076;2024-01-30T04:36:59;9.95;;;5.13;;
37593;SDS011;23441;50.856;6.076;2024-01-30T04:39:45;8.60;;;5.47;;
37593;SDS011;23441;50.856;6.076;2024-01-30T04:42:32;11.90;;;6.25;;
37593;SDS011;23441;50.856;6.076;2024-01-30T04:45:18;7.80;;;5.43;;
37593;SDS011;23441;50.856;6.076;2024-01-30T04:48:04;9.82;;;5.18;;
37593;SDS011;23441;50.856;6.076;2024-01-30T04:50:51;6.75;;;4.88;;
37593;SDS011;23441;50.856;6.076;2024-01-30T04:53:37;8.90;;;5.75;;
37593;SDS011;23441;50.856;6.076;2024-01-30T04:56:24;9.48;;;5.03;;
37593;SDS011;23441;50.856;6.076;2024-01-30T04:59:10;7.53;;;5.63;;
37593;SDS011;23441;50.856;6.076;2024-01-30T05:01:57;9.82;;;5.60;;
37593;SDS011;23441;50.856;6.076;2024-01-30T05:04:43;7.15;;;5.63;;
37593;SDS011;23441;50.856;6.076;2024-01-30T05:07:29;9.88;;;5.28;;
37593;SDS011;23441;50.856;6.076;2024-01-30T05:10:15;8.60;;;5.82;;
37593;SDS011;23441;50.856;6.076;2024-01-30T05:13:00;8.50;;;5.65;;
37593;SDS011;23441;50.856;6.076;2024-01-30T05:15:46;9.02;;;5.95;;
37593;SDS011;23441;50.856;6.076;2024-01-30T05:18:32;8.20;;;5.32;;
37593;SDS011;23441;50.856;6.076;2024-01-30T05:21:18;6.47;;;4.88;;
37593;SDS011;23441;50.856;6.076;2024-01-30T05:24:04;7.60;;;4.80;;
37593;SDS011;23441;50.856;6.076;2024-01-30T05:26:51;9.25;;;5.47;;
37593;SDS011;23441;50.856;6.076;2024-01-30T05:29:37;9.23;;;4.95;;
37593;SDS011;23441;50.856;6.076;2024-01-30T05:32:22;7.22;;;5.25;;
37593;SDS011;23441;50.856;6.076;2024-01-30T05:35:09;9.00;;;5.40;;
37593;SDS011;23441;50.856;6.076;2024-01-30T05:37:55;5.93;;;4.93;;
37593;SDS011;23441;50.856;6.076;2024-01-30T05:40:40;9.95;;;5.50;;
37593;SDS011;23441;50.856;6.076;2024-01-30T05:43:26;7.55;;;4.93;;
37593;SDS011;23441;50.856;6.076;2024-01-30T05:46:12;7.32;;;5.57;;
37593;SDS011;23441;50.856;6.076;2024-01-30T05:48:58;10.77;;;5.68;;
37593;SDS011;23441;50.856;6.076;2024-01-30T05:51:44;5.75;;;4.47;;
37593;SDS011;23441;50.856;6.076;2024-01-30T05:54:30;8.52;;;4.60;;
37593;SDS011;23441;50.856;6.076;2024-01-30T05:57:16;8.75;;;5.20;;
37593;SDS011;23441;50.856;6.076;2024-01-30T06:00:03;9.93;;;5.10;;
37593;SDS011;23441;50.856;6.076;2024-01-30T06:02:50;7.20;;;4.38;;
37593;SDS011;23441;50.856;6.076;2024-01-30T06:05:36;7.93;;;4.50;;
37593;SDS011;23441;50.856;6.076;2024-01-30T06:08:22;6.53;;;4.40;;
37593;SDS011;23441;50.856;6.076;2024-01-30T06:11:10;12.50;;;4.75;;
37593;SDS011;23441;50.856;6.076;2024-01-30T06:13:57;9.80;;;5.20;;
37593;SDS011;23441;50.856;6.076;2024-01-30T06:16:43;6.65;;;5.10;;
37593;SDS011;23441;50.856;6.076;2024-01-30T06:19:28;12.38;;;5.60;;
37593;SDS011;23441;50.856;6.076;2024-01-30T06:22:15;10.45;;;5.18;;
37593;SDS011;23441;50.856;6.076;2024-01-30T06:25:01;7.63;;;4.80;;
37593;SDS011;23441;50.856;6.076;2024-01-30T06:27:48;7.63;;;4.78;;
37593;SDS011;23441;50.856;6.076;2024-01-30T06:30:34;7.80;;;4.80;;
37593;SDS011;23441;50.856;6.076;2024-01-30T06:33:20;6.63;;;4.65;;
37593;SDS011;23441;50.856;6.076;2024-01-30T06:36:06;9.70;;;5.15;;
37593;SDS011;23441;50.856;6.076;2024-01-30T06:38:52;8.93;;;4.82;;
37593;SDS011;23441;50.856;6.076;2024-01-30T06:41:38;8.20;;;5.32;;
37593;SDS011;23441;50.856;6.076;2024-01-30T06:44:23;10.02;;;5.38;;
37593;SDS011;23441;50.856;6.076;2024-01-30T06:47:09;7.60;;;5.63;;
37593;SDS011;23441;50.856;6.076;2024-01-30T06:49:56;8.25;;;5.10;;
37593;SDS011;23441;50.856;6.076;2024-01-30T06:52:41;11.10;;;5.40;;
37593;SDS011;23441;50.856;6.076;2024-01-30T06:55:27;11.32;;;6.07;;
37593;SDS011;23441;50.856;6.076;2024-01-30T06:58:13;9.25;;;5.30;;
37593;SDS011;23441;50.856;6.076;2024-01-30T07:00:59;9.55;;;5.90;;
37593;SDS011;23441;50.856;6.076;2024-01-30T07:03:45;10.52;;;5.93;;
37593;SDS011;23441;50.856;6.076;2024-01-30T07:06:31;9.27;;;5.68;;
37593;SDS011;23441;50.856;6.076;2024-01-30T07:09:17;7.55;;;5.50;;
37593;SDS011;23441;50.856;6.076;2024-01-30T07:12:03;8.98;;;5.40;;
37593;SDS011;23441;50.856;6.076;2024-01-30T07:14:49;9.68;;;5.93;;
37593;SDS011;23441;50.856;6.076;2024-01-30T07:17:35;12.02;;;5.35;;
37593;SDS011;23441;50.856;6.076;2024-01-30T07:20:22;10.57;;;5.65;;
37593;SDS011;23441;50.856;6.076;2024-01-30T07:23:09;11.02;;;5.93;;
37593;SDS011;23441;50.856;6.076;2024-01-30T07:25:59;10.18;;;5.65;;
37593;SDS011;23441;50.856;6.076;2024-01-30T07:28:45;8.60;;;6.30;;
37593;SDS011;23441;50.856;6.076;2024-01-30T07:31:31;11.98;;;5.35;;
37593;SDS011;23441;50.856;6.076;2024-01-30T07:34:17;8.15;;;5.90;;
37593;SDS011;23441;50.856;6.076;2024-01-30T07:37:03;9.13;;;6.10;;
37593;SDS011;23441;50.856;6.076;2024-01-30T07:39:49;8.60;;;6.13;;
37593;SDS011;23441;50.856;6.076;2024-01-30T07:42:35;9.63;;;6.07;;
37593;SDS011;23441;50.856;6.076;2024-01-30T07:45:21;9.95;;;5.38;;
37593;SDS011;23441;50.856;6.076;2024-01-30T07:48:09;7.65;;;5.97;;
37593;SDS011;23441;50.856;6.076;2024-01-30T07:50:55;10.05;;;6.32;;
37593;SDS011;23441;50.856;6.076;2024-01-30T07:53:41;9.35;;;5.70;;
37593;SDS011;23441;50.856;6.076;2024-01-30T07:56:27;9.50;;;6.40;;
37593;SDS011;23441;50.856;6.076;2024-01-30T07:59:13;10.35;;;5.95;;
37593;SDS011;23441;50.856;6.076;2024-01-30T08:01:59;11.38;;;5.60;;
37593;SDS011;23441;50.856;6.076;2024-01-30T08:04:45;8.50;;;5.80;;
37593;SDS011;23441;50.856;6.076;2024-01-30T08:07:34;10.45;;;5.93;;
37593;SDS011;23441;50.856;6.076;2024-01-30T08:10:20;11.10;;;6.72;;
37593;SDS011;23441;50.856;6.076;2024-01-30T08:13:06;12.15;;;6.22;;
37593;SDS011;23441;50.856;6.076;2024-01-30T08:15:54;8.15;;;5.95;;
37593;SDS011;23441;50.856;6.076;2024-01-30T08:18:40;10.98;;;6.47;;
37593;SDS011;23441;50.856;6.076;2024-01-30T08:21:26;9.27;;;6.30;;
37593;SDS011;23441;50.856;6.076;2024-01-30T08:24:12;9.45;;;6.05;;
37593;SDS011;23441;50.856;6.076;2024-01-30T08:26:58;12.00;;;6.47;;
37593;SDS011;23441;50.856;6.076;2024-01-30T08:29:44;11.55;;;6.65;;
37593;SDS011;23441;50.856;6.076;2024-01-30T08:32:30;12.27;;;6.07;;
37593;SDS011;23441;50.856;6.076;2024-01-30T08:35:16;9.45;;;6.20;;
37593;SDS011;23441;50.856;6.076;2024-01-30T08:38:02;15.77;;;6.80;;
37593;SDS011;23441;50.856;6.076;2024-01-30T08:40:49;10.05;;;6.68;;
37593;SDS011;23441;50.856;6.076;2024-01-30T08:43:35;8.65;;;6.40;;
37593;SDS011;23441;50.856;6.076;2024-01-30T08:46:21;10.85;;;6.55;;
37593;SDS011;23441;50.856;6.076;2024-01-30T08:49:07;8.77;;;6.28;;
37593;SDS011;23441;50.856;6.076;2024-01-30T08:51:53;9.95;;;6.35;;
37593;SDS011;23441;50.856;6.076;2024-01-30T08:54:39;12.32;;;6.90;;
37593;SDS011;23441;50.856;6.076;2024-01-30T08:57:25;8.63;;;6.05;;
37593;SDS011;23441;50.856;6.076;2024-01-30T09:00:13;11.32;;;5.97;;
37593;SDS011;23441;50.856;6.076;2024-01-30T09:03:00;11.45;;;6.60;;
37593;SDS011;23441;50.856;6.076;2024-01-30T09:05:46;8.60;;;6.75;;
37593;SDS011;23441;50.856;6.076;2024-01-30T09:08:32;11.43;;;6.60;;
37593;SDS011;23441;50.856;6.076;2024-01-30T09:11:18;21.40;;;6.63;;
37593;SDS011;23441;50.856;6.076;2024-01-30T09:14:04;8.55;;;6.05;;
37593;SDS011;23441;50.856;6.076;2024-01-30T09:16:50;12.63;;;6.70;;
37593;SDS011;23441;50.856;6.076;2024-01-30T09:19:36;11.25;;;6.38;;
37593;SDS011;23441;50.856;6.076;2024-01-30T09:22:22;12.35;;;6.57;;
37593;SDS011;23441;50.856;6.076;2024-01-30T09:25:08;11.05;;;6.50;;
37593;SDS011;23441;50.856;6.076;2024-01-30T09:27:54;12.80;;;6.28;;
37593;SDS011;23441;50.856;6.076;2024-01-30T09:30:40;15.50;;;6.97;;
37593;SDS011;23441;50.856;6.076;2024-01-30T09:33:26;13.32;;;5.95;;
37593;SDS011;23441;50.856;6.076;2024-01-30T09:36:12;12.65;;;5.40;;
37593;SDS011;23441;50.856;6.076;2024-01-30T09:39:00;12.43;;;6.47;;
37593;SDS011;23441;50.856;6.076;2024-01-30T09:41:51;10.30;;;5.32;;
37593;SDS011;23441;50.856;6.076;2024-01-30T09:44:46;11.15;;;4.88;;
37593;SDS011;23441;50.856;6.076;2024-01-30T09:47:42;10.88;;;5.28;;
37593;SDS011;23441;50.856;6.076;2024-01-30T09:50:29;13.80;;;4.80;;
37593;SDS011;23441;50.856;6.076;2024-01-30T09:53:15;8.23;;;4.82;;
37593;SDS011;23441;50.856;6.076;2024-01-30T09:56:02;13.35;;;5.75;;
37593;SDS011;23441;50.856;6.076;2024-01-30T09:58:49;9.20;;;4.90;;
37593;SDS011;23441;50.856;6.076;2024-01-30T10:01:35;7.88;;;5.05;;
37593;SDS011;23441;50.856;6.076;2024-01-30T10:04:22;11.70;;;5.20;;
37593;SDS011;23441;50.856;6.076;2024-01-30T10:07:07;11.02;;;5.38;;
37593;SDS011;23441;50.856;6.076;2024-01-30T10:09:56;11.98;;;5.15;;
37593;SDS011;23441;50.856;6.076;2024-01-30T10:12:42;9.35;;;5.60;;
37593;SDS011;23441;50.856;6.076;2024-01-30T10:15:28;10.13;;;5.65;;
37593;SDS011;23441;50.856;6.076;2024-01-30T10:18:14;12.88;;;5.60;;
37593;SDS011;23441;50.856;6.076;2024-01-30T10:21:00;10.02;;;5.90;;
37593;SDS011;23441;50.856;6.076;2024-01-30T10:23:46;9.45;;;5.53;;
37593;SDS011;23441;50.856;6.076;2024-01-30T10:26:32;11.60;;;5.47;;
37593;SDS011;23441;50.856;6.076;2024-01-30T10:29:19;12.88;;;5.97;;
37593;SDS011;23441;50.856;6.076;2024-01-30T10:32:05;10.88;;;6.35;;
37593;SDS011;23441;50.856;6.076;2024-01-30T10:34:51;12.35;;;5.75;;
37593;SDS011;23441;50.856;6.076;2024-01-30T10:37:37;10.98;;;6.15;;
37593;SDS011;23441;50.856;6.076;2024-01-30T10:40:24;11.80;;;6.50;;
37593;SDS011;23441;50.856;6.076;2024-01-30T10:43:13;12.55;;;6.32;;
37593;SDS011;23441;50.856;6.076;2024-01-30T10:46:10;18.88;;;6.60;;
37593;SDS011;23441;50.856;6.076;2024-01-30T10:49:04;8.68;;;5.53;;
37593;SDS011;23441;50.856;6.076;2024-01-30T10:51:51;12.93;;;5.93;;
37593;SDS011;23441;50.856;6.076;2024-01-30T10:54:38;12.05;;;6.32;;
37593;SDS011;23441;50.856;6.076;2024-01-30T10:57:26;11.48;;;6.32;;
37593;SDS011;23441;50.856;6.076;2024-01-30T11:00:13;8.93;;;5.78;;
37593;SDS011;23441;50.856;6.076;2024-01-30T11:03:01;12.45;;;5.97;;
37593;SDS011;23441;50.856;6.076;2024-01-30T11:05:51;11.43;;;6.35;;
37593;SDS011;23441;50.856;6.076;2024-01-30T11:08:37;10.55;;;5.90;;
37593;SDS011;23441;50.856;6.076;2024-01-30T11:11:24;15.30;;;6.05;;
37593;SDS011;23441;50.856;6.076;2024-01-30T11:14:10;11.73;;;6.07;;
37593;SDS011;23441;50.856;6.076;2024-01-30T11:16:59;14.48;;;6.53;;
37593;SDS011;23441;50.856;6.076;2024-01-30T11:19:46;15.90;;;6.45;;
37593;SDS011;23441;50.856;6.076;2024-01-30T11:22:31;10.95;;;6.25;;
37593;SDS011;23441;50.856;6.076;2024-01-30T11:25:19;11.70;;;6.47;;
37593;SDS011;23441;50.856;6.076;2024-01-30T11:28:06;10.95;;;6.43;;
37593;SDS011;23441;50.856;6.076;2024-01-30T11:31:04;10.98;;;6.70;;
37593;SDS011;23441;50.856;6.076;2024-01-30T11:33:52;12.13;;;6.20;;
37593;SDS011;23441;50.856;6.076;2024-01-30T11:36:39;10.88;;;6.80;;
37593;SDS011;23441;50.856;6.076;2024-01-30T11:39:30;13.88;;;6.95;;
37593;SDS011;23441;50.856;6.076;2024-01-30T11:42:17;11.05;;;6.93;;
37593;SDS011;23441;50.856;6.076;2024-01-30T11:45:04;13.45;;;6.82;;
37593;SDS011;23441;50.856;6.076;2024-01-30T11:47:51;13.88;;;7.00;;
37593;SDS011;23441;50.856;6.076;2024-01-30T11:50:37;11.85;;;7.28;;
37593;SDS011;23441;50.856;6.076;2024-01-30T11:53:24;11.13;;;7.20;;
37593;SDS011;23441;50.856;6.076;2024-01-30T11:56:10;12.63;;;7.22;;
37593;SDS011;23441;50.856;6.076;2024-01-30T11:58:58;13.70;;;6.72;;
37593;SDS011;23441;50.856;6.076;2024-01-30T12:01:45;14.52;;;7.70;;
37593;SDS011;23441;50.856;6.076;2024-01-30T12:04:31;16.27;;;7.93;;
37593;SDS011;23441;50.856;6.076;2024-01-30T12:07:17;14.77;;;7.43;;
37593;SDS011;23441;50.856;6.076;2024-01-30T12:10:03;16.70;;;7.68;;
37593;SDS011;23441;50.856;6.076;2024-01-30T12:12:50;14.57;;;7.97;;
37593;SDS011;23441;50.856;6.076;2024-01-30T12:15:37;11.05;;;7.45;;
37593;SDS011;23441;50.856;6.076;2024-01-30T12:18:23;15.20;;;7.78;;
37593;SDS011;23441;50.856;6.076;2024-01-30T12:21:09;14.35;;;8.07;;
37593;SDS011;23441;50.856;6.076;2024-01-30T12:23:56;12.25;;;7.20;;
37593;SDS011;23441;50.856;6.076;2024-01-30T12:26:43;19.42;;;7.68;;
37593;SDS011;23441;50.856;6.076;2024-01-30T12:29:31;14.27;;;7.57;;
37593;SDS011;23441;50.856;6.076;2024-01-30T12:32:19;12.70;;;8.20;;
37593;SDS011;23441;50.856;6.076;2024-01-30T12:35:09;16.23;;;7.80;;
37593;SDS011;23441;50.856;6.076;2024-01-30T12:37:59;13.30;;;7.22;;
37593;SDS011;23441;50.856;6.076;2024-01-30T12:40:45;15.75;;;8.23;;
37593;SDS011;23441;50.856;6.076;2024-01-30T12:43:32;15.77;;;7.68;;
37593;SDS011;23441;50.856;6.076;2024-01-30T12:46:18;13.43;;;8.23;;
37593;SDS011;23441;50.856;6.076;2024-01-30T12:49:04;14.48;;;8.55;;
37593;SDS011;23441;50.856;6.076;2024-01-30T12:51:50;18.13;;;8.13;;
37593;SDS011;23441;50.856;6.076;2024-01-30T12:54:36;20.33;;;8.98;;
37593;SDS011;23441;50.856;6.076;2024-01-30T12:57:22;17.05;;;8.43;;
37593;SDS011;23441;50.856;6.076;2024-01-30T13:00:08;15.48;;;8.77;;
37593;SDS011;23441;50.856;6.076;2024-01-30T13:02:54;16.60;;;8.27;;
37593;SDS011;23441;50.856;6.076;2024-01-30T13:05:41;13.52;;;7.75;;
37593;SDS011;23441;50.856;6.076;2024-01-30T13:08:27;14.68;;;8.07;;
37593;SDS011;23441;50.856;6.076;2024-01-30T13:11:13;16.60;;;8.43;;
37593;SDS011;23441;50.856;6.076;2024-01-30T13:13:59;16.42;;;9.02;;
37593;SDS011;23441;50.856;6.076;2024-01-30T13:16:45;14.63;;;8.05;;
37593;SDS011;23441;50.856;6.076;2024-01-30T13:19:31;14.07;;;8.23;;
37593;SDS011;23441;50.856;6.076;2024-01-30T13:22:17;14.57;;;8.68;;
37593;SDS011;23441;50.856;6.076;2024-01-30T13:25:06;16.13;;;8.13;;
37593;SDS011;23441;50.856;6.076;2024-01-30T13:27:52;16.30;;;8.13;;
37593;SDS011;23441;50.856;6.076;2024-01-30T13:30:38;12.88;;;8.35;;
37593;SDS011;23441;50.856;6.076;2024-01-30T13:33:24;11.38;;;7.63;;
37593;SDS011;23441;50.856;6.076;2024-01-30T13:36:11;15.32;;;7.82;;
37593;SDS011;23441;50.856;6.076;2024-01-30T13:38:57;14.55;;;9.32;;
37593;SDS011;23441;50.856;6.076;2024-01-30T13:41:43;13.02;;;8.25;;
37593;SDS011;23441;50.856;6.076;2024-01-30T13:44:29;17.23;;;8.95;;
37593;SDS011;23441;50.856;6.076;2024-01-30T13:47:15;14.02;;;8.30;;
37593;SDS011;23441;50.856;6.076;2024-01-30T13:50:01;19.35;;;8.27;;
37593;SDS011;23441;50.856;6.076;2024-01-30T13:52:48;15.32;;;7.93;;
37593;SDS011;23441;50.856;6.076;2024-01-30T13:55:34;17.00;;;8.68;;
37593;SDS011;23441;50.856;6.076;2024-01-30T13:58:20;13.93;;;7.97;;
37593;SDS011;23441;50.856;6.076;2024-01-30T14:01:06;16.50;;;9.15;;
37593;SDS011;23441;50.856;6.076;2024-01-30T14:03:52;13.98;;;7.72;;
37593;SDS011;23441;50.856;6.076;2024-01-30T14:06:38;14.88;;;8.23;;
37593;SDS011;23441;50.856;6.076;2024-01-30T14:09:24;15.70;;;8.63;;
37593;SDS011;23441;50.856;6.076;2024-01-30T14:12:10;18.45;;;8.30;;
37593;SDS011;23441;50.856;6.076;2024-01-30T14:14:56;17.73;;;8.80;;
37593;SDS011;23441;50.856;6.076;2024-01-30T14:17:42;14.25;;;8.07;;
37593;SDS011;23441;50.856;6.076;2024-01-30T14:20:28;16.67;;;9.25;;
37593;SDS011;23441;50.856;6.076;2024-01-30T14:23:17;14.50;;;8.40;;
37593;SDS011;23441;50.856;6.076;2024-01-30T14:26:04;20.88;;;9.73;;
37593;SDS011;23441;50.856;6.076;2024-01-30T14:28:50;16.55;;;10.18;;
37593;SDS011;23441;50.856;6.076;2024-01-30T14:31:36;20.23;;;9.82;;
37593;SDS011;23441;50.856;6.076;2024-01-30T14:34:22;19.20;;;8.95;;
37593;SDS011;23441;50.856;6.076;2024-01-30T14:37:08;16.67;;;8.05;;
37593;SDS011;23441;50.856;6.076;2024-01-30T14:39:54;17.58;;;7.95;;
37593;SDS011;23441;50.856;6.076;2024-01-30T14:42:40;16.15;;;7.28;;
37593;SDS011;23441;50.856;6.076;2024-01-30T14:45:26;13.60;;;7.20;;
37593;SDS011;23441;50.856;6.076;2024-01-30T14:48:12;14.40;;;7.05;;
37593;SDS011;23441;50.856;6.076;2024-01-30T14:50:58;13.32;;;6.75;;
37593;SDS011;23441;50.856;6.076;2024-01-30T14:53:44;16.25;;;6.80;;
37593;SDS011;23441;50.856;6.076;2024-01-30T14:56:30;11.77;;;6.00;;
37593;SDS011;23441;50.856;6.076;2024-01-30T14:59:17;13.63;;;6.72;;
37593;SDS011;23441;50.856;6.076;2024-01-30T15:02:03;22.65;;;8.50;;
37593;SDS011;23441;50.856;6.076;2024-01-30T15:04:49;14.10;;;5.30;;
37593;SDS011;23441;50.856;6.076;2024-01-30T15:07:35;14.73;;;5.38;;
37593;SDS011;23441;50.856;6.076;2024-01-30T15:10:21;13.55;;;5.38;;
37593;SDS011;23441;50.856;6.076;2024-01-30T15:13:07;9.15;;;4.47;;
37593;SDS011;23441;50.856;6.076;2024-01-30T15:15:53;6.35;;;4.28;;
37593;SDS011;23441;50.856;6.076;2024-01-30T15:18:39;10.50;;;3.95;;
37593;SDS011;23441;50.856;6.076;2024-01-30T15:21:25;9.25;;;3.45;;
37593;SDS011;23441;50.856;6.076;2024-01-30T15:24:11;5.85;;;3.20;;
37593;SDS011;23441;50.856;6.076;2024-01-30T15:27:00;6.45;;;3.28;;
37593;SDS011;23441;50.856;6.076;2024-01-30T15:29:46;6.60;;;3.20;;
37593;SDS011;23441;50.856;6.076;2024-01-30T15:32:32;7.20;;;3.05;;
37593;SDS011;23441;50.856;6.076;2024-01-30T15:35:18;8.23;;;3.45;;
37593;SDS011;23441;50.856;6.076;2024-01-30T15:38:05;8.05;;;3.72;;
37593;SDS011;23441;50.856;6.076;2024-01-30T15:40:54;4.80;;;3.17;;
37593;SDS011;23441;50.856;6.076;2024-01-30T15:43:41;7.78;;;3.75;;
37593;SDS011;23441;50.856;6.076;2024-01-30T15:46:27;10.88;;;5.13;;
37593;SDS011;23441;50.856;6.076;2024-01-30T15:49:13;10.32;;;4.30;;
37593;SDS011;23441;50.856;6.076;2024-01-30T15:51:59;4.60;;;2.75;;
37593;SDS011;23441;50.856;6.076;2024-01-30T15:54:46;3.80;;;2.33;;
37593;SDS011;23441;50.856;6.076;2024-01-30T15:57:33;2.60;;;2.03;;
37593;SDS011;23441;50.856;6.076;2024-01-30T16:00:18;6.03;;;3.45;;
37593;SDS011;23441;50.856;6.076;2024-01-30T16:03:05;3.58;;;2.00;;
37593;SDS011;23441;50.856;6.076;2024-01-30T16:05:51;4.07;;;1.75;;
37593;SDS011;23441;50.856;6.076;2024-01-30T16:08:37;4.47;;;1.60;;
37593;SDS011;23441;50.856;6.076;2024-01-30T16:11:23;3.88;;;1.60;;
37593;SDS011;23441;50.856;6.076;2024-01-30T16:14:09;2.55;;;1.75;;
37593;SDS011;23441;50.856;6.076;2024-01-30T16:16:55;6.30;;;1.98;;
37593;SDS011;23441;50.856;6.076;2024-01-30T16:19:41;4.18;;;1.65;;
37593;SDS011;23441;50.856;6.076;2024-01-30T16:22:28;5.07;;;1.80;;
37593;SDS011;23441;50.856;6.076;2024-01-30T16:25:14;2.38;;;1.60;;
37593;SDS011;23441;50.856;6.076;2024-01-30T16:28:03;5.82;;;2.08;;
37593;SDS011;23441;50.856;6.076;2024-01-30T16:30:49;3.10;;;1.85;;
37593;SDS011;23441;50.856;6.076;2024-01-30T16:33:35;4.60;;;2.30;;
37593;SDS011;23441;50.856;6.076;2024-01-30T16:36:21;3.25;;;1.92;;